• Join FlightAware (Why Join?)
  • Login
  • US Flag 
Gobble Gobble! 
10:04PM EST


 

Airport Tracker/Info


-or-


 

Live Flight TrackerFlight Track Log ✈ CPZ5718 ✈ 27-Jun-2013 ✈ KALB - KMSP

Flight Track Log - Related Links

Times and Time Zones

All times are in EDT time to prevent confusion due to time zone crossing. See the CPZ5718 flight status page for this flight to view local times or setup timezone preferences in your user account.

Time Position Orientation Groundspeed Altitude Reporting Facility
EDT Latitude Longitude Course Direction KTS MPH feet Rate Location/Type
06:38AM 42.7736 -73.8092 281° West 160 184 1,200  Level Boston Center
06:39AM 42.8231 -73.8442 333° Northwest 215 247 2,900 2,040 Climbing Boston Center
06:41AM 42.8377 -74.3595 283° West  Level FlightAware Approximate
06:41AM 42.8822 -73.9617 305° West 289 333 6,500  Level Boston Center
06:42AM 42.8615 -74.5020 283° West  Level FlightAware Approximate
06:42AM 42.9228 -74.0364 307° West 289 333 9,400  Level Boston Center
06:43AM 42.8949 -74.6343 281° West  Level FlightAware Approximate
06:43AM 42.9756 -74.1342 306° West 288 331 10,900  Level Boston Center
06:44AM 43.0261 -74.2294 306° West 324 373 12,700 1,920 Climbing Boston Center
06:45AM 43.0911 -74.3450 308° West 345 397 14,800 1,860 Climbing Boston Center
06:46AM 43.1036 -74.4678 278° West 359 413 16,500 1,680 Climbing Boston Center
06:47AM 43.1136 -74.5903 276° West 364 419 18,300 1,740 Climbing Boston Center
06:48AM 43.1544 -74.7397 291° West 369 425 20,000 1,620 Climbing Boston Center
06:49AM 43.1956 -74.8753 293° West 375 432 21,600 1,440 Climbing Boston Center
06:50AM 43.2342 -75.0136 291° West 387 445 22,900 1,200 Climbing Boston Center
06:51AM 43.2728 -75.1519 291° West 392 451 24,100 1,200 Climbing Boston Center
06:52AM 43.3147 -75.3081 290° West 407 468 25,300 1,200 Climbing Boston Center
06:53AM 43.3589 -75.4586 292° West 421 484 26,600 1,260 Climbing Boston Center
06:54AM 43.4006 -75.6067 291° West 421 484 27,900 960 Climbing Boston Center
06:55AM 43.4403 -75.7572 290° West 421 484 28,600 840 Climbing Boston Center
06:56AM 43.4872 -75.9231 291° West 421 484 29,600 900 Climbing Boston Center
06:57AM 43.5306 -76.0775 291° West 427 491 30,500 960 Climbing Boston Center
06:58AM 43.5694 -76.2289 290° West 427 491 31,600 960 Climbing Boston Center
06:59AM 43.6100 -76.3806 290° West 427 491 32,500 780 Climbing Boston Center
07:00AM 43.6506 -76.5325 290° West 427 491 33,200 720 Climbing Boston Center
07:01AM 43.6667 -76.6333 282° West 420 483 33,900 420 Climbing Toronto Center
07:02AM 43.7167 -76.7667 297° West 420 483 34,000  Climbing Toronto Center
07:03AM 43.7500 -76.9333 286° West 420 483 34,000  Level Toronto Center
07:04AM 43.7833 -77.0667 289° West 430 495 34,000  Level Toronto Center
07:05AM 43.8167 -77.2333 286° West 420 483 34,000  Level Toronto Center
07:06AM 43.8833 -77.3833 302° West 430 495 34,000  Level Toronto Center
07:07AM 43.9167 -77.5500 286° West 430 495 34,000  Level Toronto Center
07:08AM 43.9500 -77.7167 286° West 430 495 34,000  Level Toronto Center
07:09AM 43.9833 -77.8500 289° West 430 495 34,000  Level Toronto Center
07:10AM 44.0167 -78.0167 286° West 430 495 34,000  Level Toronto Center
07:11AM 44.0500 -78.1667 287° West 430 495 34,000  Level Toronto Center
07:12AM 44.1000 -78.3333 293° West 430 495 34,000  Level Toronto Center
07:13AM 44.1500 -78.5000 293° West 430 495 34,000  Level Toronto Center
07:14AM 44.1833 -78.6333 289° West 430 495 34,000  Level Toronto Center
07:15AM 44.2167 -78.8167 284° West 430 495 34,000  Level Toronto Center
07:16AM 44.2500 -78.9500 289° West 430 495 34,000  Level Toronto Center
07:17AM 44.3000 -79.1167 293° West 430 495 34,000  Level Toronto Center
07:18AM 44.3167 -79.2833 278° West 430 495 34,000  Level Toronto Center
07:19AM 44.3333 -79.4500 278° West 430 495 34,000  Level Toronto Center
07:20AM 44.3333 -79.6167 270° West 420 483 34,000  Level Toronto Center
07:21AM 44.3500 -79.7667 279° West 430 495 34,000  Level Toronto Center
07:22AM 44.3500 -79.9333 270° West 420 483 34,000  Level Toronto Center
07:23AM 44.3667 -80.1000 278° West 420 483 34,000  Level Toronto Center
07:24AM 44.3833 -80.2667 278° West 420 483 34,000  Level Toronto Center
07:25AM 44.3833 -80.4333 270° West 430 495 34,000  Level Toronto Center
07:26AM 44.4000 -80.6167 277° West 420 483 34,000  Level Toronto Center
07:27AM 44.4000 -80.7500 270° West 420 483 34,000  Level Toronto Center
07:28AM 44.4000 -80.9333 270° West 430 495 34,000  Level Toronto Center
07:29AM 44.4167 -81.1000 278° West 430 495 34,000  Level Toronto Center
07:30AM 44.4167 -81.2667 270° West 420 483 34,000  Level Toronto Center
07:31AM 44.4333 -81.4333 278° West 430 495 34,000  Level Toronto Center
07:32AM 44.4333 -81.6000 270° West 420 483 34,000  Level Toronto Center
07:33AM 44.4500 -81.7500 279° West 430 495 34,000  Level Toronto Center
07:34AM 44.4667 -81.9167 278° West 430 495 34,000  Level Toronto Center
07:35AM 44.4500 -82.1167 263° West 430 495 34,000  Level Toronto Center
07:36AM 44.4667 -82.2500 280° West 430 495 34,000  Level Toronto Center
07:37AM 44.4833 -82.4167 278° West 430 495 34,000  Level Toronto Center
07:37AM 44.4917 -82.5278 276° West 429 494 34,000  Level Minneapolis Center
07:38AM 44.5064 -82.6942 277° West 431 496 34,000  Level Minneapolis Center
07:39AM 44.5208 -82.8942 276° West 432 497 34,000  Level Minneapolis Center
07:40AM 44.5372 -83.0606 278° West 431 496 34,000  Level Minneapolis Center
07:41AM 44.5503 -83.2269 276° West 432 497 34,000  Level Minneapolis Center
07:42AM 44.5625 -83.3939 276° West 431 496 34,000  Level Minneapolis Center
07:43AM 44.5778 -83.5569 278° West 428 493 34,000  Level Minneapolis Center
07:44AM 44.5914 -83.7194 277° West 424 488 34,000  Level Minneapolis Center
07:45AM 44.6033 -83.8814 276° West 421 484 34,000  Level Minneapolis Center
07:46AM 44.6142 -84.0392 276° West 416 479 34,000  Level Minneapolis Center
07:47AM 44.6250 -84.1978 276° West 411 473 34,000  Level Minneapolis Center
07:48AM 44.6353 -84.3556 275° West 409 471 34,000  Level Minneapolis Center
07:49AM 44.6461 -84.5153 276° West 410 472 34,000  Level Minneapolis Center
07:50AM 44.6575 -84.7097 275° West 415 478 34,000 -60 Level Minneapolis Center
07:51AM 44.6686 -84.8731 276° West 420 483 33,900  Descending Minneapolis Center
07:52AM 44.6789 -85.0350 275° West 419 482 34,000  Climbing Minneapolis Center
07:54AM 44.6881 -85.1944 275° West 413 475 34,000 -60 Level Minneapolis Center
07:55AM 44.7006 -85.3842 275° West 409 471 33,900  Descending Minneapolis Center
07:56AM 44.7097 -85.5422 275° West 407 468 34,000  Climbing Minneapolis Center
07:57AM 44.7172 -85.6956 274° West 404 465 34,000  Level Minneapolis Center
07:58AM 44.7261 -85.8550 275° West 409 471 34,000  Level Minneapolis Center
07:59AM 44.7350 -86.0144 275° West 410 472 34,000  Level Minneapolis Center
08:00AM 44.7431 -86.1703 274° West 406 467 34,000  Level Minneapolis Center
08:01AM 44.7517 -86.3281 274° West 405 466 34,000  Level Minneapolis Center
08:02AM 44.7622 -86.5183 275° West 408 470 34,000  Level Minneapolis Center
08:03AM 44.7697 -86.6758 274° West 408 470 34,000  Level Minneapolis Center
08:04AM 44.7761 -86.8239 274° West 409 471 34,000  Level Minneapolis Center
08:05AM 44.7844 -87.0136 274° West 406 467 34,000  Level Minneapolis Center
08:06AM 44.7925 -87.2050 273° West 409 471 34,000  Level Minneapolis Center
08:07AM 44.7992 -87.3644 273° West 410 472 34,000  Level Minneapolis Center
08:08AM 44.8053 -87.4922 274° West 410 472 34,000  Level Minneapolis Center
08:09AM 44.8117 -87.6794 273° West 403 464 34,000  Level Minneapolis Center
08:10AM 44.8178 -87.8361 273° West 401 461 34,000  Level Minneapolis Center
08:11AM 44.8239 -87.9936 273° West 403 464 34,000  Level Minneapolis Center
08:12AM 44.8297 -88.1494 273° West 401 461 34,000  Level Minneapolis Center
08:13AM 44.8364 -88.3389 273° West 404 465 34,000  Level Minneapolis Center
08:14AM 44.8414 -88.4989 273° West 408 470 34,000  Level Minneapolis Center
08:15AM 44.8458 -88.6564 272° West 405 466 34,000  Level Minneapolis Center
08:16AM 44.8503 -88.8153 272° West 405 466 34,000  Level Minneapolis Center
08:18AM 44.8547 -88.9706 272° West 400 460 34,000  Level Minneapolis Center
08:19AM 44.8603 -89.1781 272° West 398 458 34,000 -60 Level Minneapolis Center
08:20AM 44.8642 -89.3325 272° West 397 457 33,900 -660 Descending Minneapolis Center
08:21AM 44.8692 -89.4875 273° West 397 457 32,700 -960 Descending Minneapolis Center
08:22AM 44.8722 -89.6439 272° West 400 460 32,000 -360 Descending Minneapolis Center
08:23AM 44.8758 -89.8119 272° West 410 472 32,000  Level Minneapolis Center
08:24AM 44.8797 -90.0022 272° West 405 466 32,000  Level Minneapolis Center
08:25AM 44.8814 -90.1594 271° West 401 461 32,000  Level Minneapolis Center
08:26AM 44.8850 -90.3142 272° West 396 456 32,000 -120 Level Minneapolis Center
08:27AM 44.8858 -90.4708 270° West 399 459 31,800 -720 Descending Minneapolis Center
08:28AM 44.8903 -90.6900 272° West 400 460 30,400 -1,200 Descending Minneapolis Center
08:29AM 44.8911 -90.8483 270° West 404 465 29,400 -900 Descending Minneapolis Center
08:30AM 44.8928 -90.9864 271° West 410 472 28,600 -1,020 Descending Minneapolis Center
08:31AM 44.9111 -91.1767 278° West 407 468 27,400 -1,140 Descending Minneapolis Center
08:32AM 44.9300 -91.3311 280° West 404 465 26,300 -1,800 Descending Minneapolis Center
08:34AM 44.9492 -91.4828 280° West 399 459 23,700 -2,400 Descending Minneapolis Center
08:35AM 44.9678 -91.6253 281° West 381 438 21,400 -2,220 Descending Minneapolis Center
08:36AM 44.9853 -91.7647 280° West 366 421 19,200 -2,160 Descending Minneapolis Center
08:37AM 45.0028 -91.9011 280° West 357 411 17,000 -2,280 Descending Minneapolis Center
08:38AM 45.0211 -92.0567 280° West 336 387 14,500 -2,220 Descending Minneapolis Center
08:39AM 45.0364 -92.1828 280° West 328 377 12,500 -1,740 Descending Minneapolis Center
08:40AM 45.0467 -92.3119 276° West 333 383 11,000 -1,020 Descending Minneapolis Center
08:41AM 45.0269 -92.4269 256° West 299 344 10,500 -1,080 Descending Minneapolis Center
08:42AM 45.0003 -92.5214 248° West 264 304 8,800 -1,680 Descending Minneapolis Center
08:43AM 44.9539 -92.6042 232° Southwest 268 308 7,100 -840 Descending Minneapolis Center
08:44AM 44.9006 -92.7003 232° Southwest 261 300 7,000 -540 Descending Minneapolis Center
08:45AM 44.8464 -92.7978 232° Southwest 261 300 6,000 -1,320 Descending Minneapolis Center
08:46AM 44.8144 -92.8831 242° Southwest 252 290 4,300 -1,080 Descending Minneapolis Center
08:47AM 44.8125 -92.9714 268° West 224 258 3,800 -540 Descending Minneapolis Center
08:48AM 44.8136 -93.0361 271° West 166 191 3,300 -540 Descending Minneapolis Center